Time;durP1;ratioP1;P1;durP2;ratioP2;P2;SDS_P1;SDS_P2;PMS_P1;PMS_P2;Temp;Humidity;BMP_temperature;BMP_pressure;BME280_temperature;BME280_humidity;BME280_pressure;Samples;Min_cycle;Max_cycle;Signal;HPM_P1;HPM_P2
2023/02/17 00:00:18;;;;;;;1.30;0.90;;;9.70;99.90;;;;;;5075414;28;20892;-63
2023/02/17 00:02:46;;;;;;;1.77;0.90;;;9.70;99.90;;;;;;5072706;28;20419;-63
2023/02/17 00:05:14;;;;;;;1.10;0.80;;;9.70;99.90;;;;;;5075405;28;20891;-62
2023/02/17 00:07:41;;;;;;;2.05;0.90;;;9.70;99.90;;;;;;5075257;28;20940;-62
2023/02/17 00:10:10;;;;;;;1.30;1.00;;;9.60;99.90;;;;;;5073649;28;20761;-63
2023/02/17 00:12:39;;;;;;;1.80;1.00;;;9.60;99.90;;;;;;5071649;28;20489;-63
2023/02/17 00:15:07;;;;;;;2.30;0.90;;;9.60;99.90;;;;;;5072366;28;20427;-63
2023/02/17 00:17:34;;;;;;;1.85;0.90;;;9.60;99.90;;;;;;5073262;28;20537;-63
2023/02/17 00:20:01;;;;;;;1.40;0.85;;;9.50;99.90;;;;;;5072697;28;20703;-63
2023/02/17 00:22:30;;;;;;;2.20;0.80;;;9.50;99.90;;;;;;5072052;28;20654;-62
2023/02/17 00:24:57;;;;;;;2.10;0.90;;;9.50;99.90;;;;;;5073136;28;20906;-62
2023/02/17 00:27:24;;;;;;;2.28;0.98;;;9.50;99.90;;;;;;5074160;28;20477;-63
2023/02/17 00:29:51;;;;;;;1.30;0.83;;;9.50;99.90;;;;;;5074223;28;20435;-63
2023/02/17 00:32:19;;;;;;;1.40;0.90;;;9.40;99.90;;;;;;5074440;28;20424;-63
2023/02/17 00:34:46;;;;;;;2.50;0.90;;;9.40;99.90;;;;;;5074581;28;20434;-62
2023/02/17 00:37:13;;;;;;;1.70;0.90;;;9.40;99.90;;;;;;5075374;28;20769;-63
2023/02/17 00:39:41;;;;;;;1.80;0.80;;;9.40;99.90;;;;;;5075836;28;20735;-62
2023/02/17 00:42:08;;;;;;;1.75;0.90;;;9.40;99.90;;;;;;5074979;28;20727;-62
2023/02/17 00:44:36;;;;;;;2.80;0.80;;;9.40;99.90;;;;;;5074573;28;20427;-62
2023/02/17 00:47:03;;;;;;;1.52;0.88;;;9.40;99.90;;;;;;5075435;28;20424;-63
2023/02/17 00:49:30;;;;;;;1.30;1.00;;;9.40;99.90;;;;;;5075290;28;20427;-63
2023/02/17 00:52:00;;;;;;;1.25;0.88;;;9.40;99.90;;;;;;5075320;28;20720;-63
2023/02/17 00:54:27;;;;;;;1.10;0.80;;;9.40;99.90;;;;;;5074897;28;20794;-63
2023/02/17 00:56:55;;;;;;;1.60;0.80;;;9.40;99.90;;;;;;5075564;28;20498;-62
2023/02/17 00:59:23;;;;;;;1.20;0.80;;;9.40;99.90;;;;;;5074720;28;20465;-62
2023/02/17 01:01:50;;;;;;;1.15;0.70;;;9.40;99.90;;;;;;5074974;28;20424;-62
2023/02/17 01:04:17;;;;;;;1.30;0.90;;;9.40;99.90;;;;;;5074102;28;20427;-62
2023/02/17 01:06:44;;;;;;;1.60;0.90;;;9.40;99.90;;;;;;5074725;28;20423;-65
2023/02/17 01:09:14;;;;;;;2.10;0.90;;;9.40;99.90;;;;;;5073323;28;20858;-63
2023/02/17 01:11:42;;;;;;;1.00;0.70;;;9.50;99.90;;;;;;5073861;28;20415;-62
2023/02/17 01:14:13;;;;;;;1.50;0.90;;;9.50;99.90;;;;;;5074198;28;20431;-63
2023/02/17 01:16:43;;;;;;;1.50;0.80;;;9.50;99.90;;;;;;5073343;28;20426;-63
2023/02/17 01:19:13;;;;;;;2.10;0.80;;;9.50;99.90;;;;;;5074116;28;20423;-61
2023/02/17 01:21:41;;;;;;;3.30;0.77;;;9.60;99.90;;;;;;5073131;28;20419;-63
2023/02/17 01:24:09;;;;;;;1.50;0.70;;;9.60;99.90;;;;;;5073449;28;20681;-62
2023/02/17 01:26:37;;;;;;;1.48;0.80;;;9.60;99.90;;;;;;5074930;28;20420;-62
2023/02/17 01:29:06;;;;;;;1.90;0.70;;;9.60;99.90;;;;;;5074706;28;20839;-62
2023/02/17 01:31:35;;;;;;;1.80;0.70;;;9.70;99.90;;;;;;5074725;28;20723;-63
2023/02/17 01:34:04;;;;;;;2.00;0.90;;;9.70;99.90;;;;;;5074639;28;20720;-62
2023/02/17 01:36:31;;;;;;;2.88;0.90;;;9.70;99.90;;;;;;5074195;28;20819;-62
2023/02/17 01:38:59;;;;;;;1.48;0.80;;;9.70;99.90;;;;;;5074047;28;20419;-63
2023/02/17 01:41:27;;;;;;;1.50;0.80;;;9.80;99.90;;;;;;5074657;28;20419;-62
2023/02/17 01:44:13;;;;;;;1.00;0.70;;;9.80;99.90;;;;;;5074490;28;20424;-62
2023/02/17 01:46:44;;;;;;;2.50;0.80;;;9.70;99.90;;;;;;5074893;28;20420;-65
2023/02/17 01:49:20;;;;;;;1.50;0.80;;;9.70;99.90;;;;;;5073376;28;21077;-62
2023/02/17 01:51:52;;;;;;;1.80;0.80;;;9.70;99.90;;;;;;5074106;28;20711;-64
2023/02/17 01:54:23;;;;;;;2.90;0.70;;;9.70;99.90;;;;;;5073438;28;20440;-64
2023/02/17 01:56:51;;;;;;;1.05;0.70;;;9.70;99.90;;;;;;5072649;28;20427;-63
2023/02/17 01:59:21;;;;;;;1.70;0.70;;;9.60;99.90;;;;;;5073982;28;20424;-63
2023/02/17 02:01:54;;;;;;;1.88;0.80;;;9.60;99.90;;;;;;5073040;28;20423;-63
2023/02/17 02:04:25;;;;;;;1.90;1.20;;;9.60;99.90;;;;;;5073510;28;20427;-63
2023/02/17 02:06:52;;;;;;;1.40;0.80;;;9.60;99.90;;;;;;5074586;28;20423;-63
2023/02/17 02:09:22;;;;;;;2.10;0.80;;;9.60;99.90;;;;;;5074169;28;20442;-63
2023/02/17 02:11:50;;;;;;;2.40;0.80;;;9.60;99.90;;;;;;5074288;28;20416;-63
2023/02/17 02:14:20;;;;;;;1.98;1.00;;;9.50;99.90;;;;;;5072506;28;20424;-63
2023/02/17 02:16:54;;;;;;;2.40;0.80;;;9.50;99.90;;;;;;5073706;28;20791;-62
2023/02/17 02:19:51;;;;;;;2.90;0.70;;;9.60;99.90;;;;;;5071852;28;20820;-63
2023/02/17 02:22:37;;;;;;;1.10;0.70;;;9.60;99.90;;;;;;5073773;28;20513;-62
2023/02/17 02:25:17;;;;;;;1.92;0.80;;;9.60;99.90;;;;;;5074108;28;20819;-61
2023/02/17 02:27:55;;;;;;;1.60;0.73;;;9.50;99.90;;;;;;5074461;28;20423;-64
2023/02/17 02:30:50;;;;;;;1.10;0.80;;;9.50;99.90;;;;;;5073130;28;20443;-63
2023/02/17 02:33:25;;;;;;;1.10;0.80;;;9.50;99.90;;;;;;5073221;28;20419;-63
2023/02/17 02:36:01;;;;;;;1.20;0.80;;;9.40;99.90;;;;;;5074883;28;20427;-62
2023/02/17 02:38:34;;;;;;;2.00;0.80;;;9.40;99.90;;;;;;5075768;28;20423;-63
2023/02/17 02:41:08;;;;;;;2.60;0.80;;;9.40;99.90;;;;;;5076918;28;20428;-61
2023/02/17 02:43:35;;;;;;;1.20;0.80;;;9.40;99.90;;;;;;5076866;28;20419;-62
2023/02/17 02:46:02;;;;;;;1.60;0.80;;;9.40;99.90;;;;;;5077573;28;20438;-63
2023/02/17 02:48:31;;;;;;;2.38;0.70;;;9.40;99.90;;;;;;5077929;28;20416;-62
2023/02/17 02:51:09;;;;;;;1.20;0.70;;;9.40;99.90;;;;;;5077524;28;20439;-63
2023/02/17 02:54:16;;;;;;;1.40;0.80;;;9.30;99.90;;;;;;5077593;28;20869;-63
2023/02/17 02:57:01;;;;;;;1.52;0.70;;;9.40;99.90;;;;;;5077205;28;20411;-62
2023/02/17 02:59:37;;;;;;;2.50;0.80;;;9.40;99.90;;;;;;5077705;28;20871;-63
2023/02/17 03:02:11;;;;;;;1.90;0.70;;;9.40;99.90;;;;;;5077481;28;20419;-63
2023/02/17 03:04:46;;;;;;;1.30;0.80;;;9.40;99.90;;;;;;5077149;28;20423;-63
2023/02/17 03:07:20;;;;;;;1.00;0.70;;;9.40;99.90;;;;;;5076299;28;20423;-62
2023/02/17 03:09:48;;;;;;;2.40;0.80;;;9.50;99.90;;;;;;5076256;28;20858;-63
2023/02/17 03:12:15;;;;;;;1.15;0.70;;;9.50;99.90;;;;;;5077292;28;20420;-62
2023/02/17 03:14:43;;;;;;;1.45;0.80;;;9.50;99.90;;;;;;5075562;28;20431;-62
2023/02/17 03:17:10;;;;;;;2.60;0.80;;;9.40;99.90;;;;;;5077102;28;20415;-61
2023/02/17 03:19:39;;;;;;;2.28;0.70;;;9.50;99.90;;;;;;5076786;28;20430;-63
2023/02/17 03:22:13;;;;;;;1.60;0.70;;;9.40;99.90;;;;;;5077297;28;20424;-62
2023/02/17 03:24:40;;;;;;;1.38;0.70;;;9.50;99.90;;;;;;5076816;28;20427;-63
2023/02/17 03:27:07;;;;;;;1.42;0.70;;;9.40;99.90;;;;;;5076686;28;20422;-63
2023/02/17 03:29:34;;;;;;;1.80;0.70;;;9.50;99.90;;;;;;5077146;28;20867;-61
2023/02/17 03:32:01;;;;;;;1.60;0.70;;;9.50;99.90;;;;;;5075730;28;20423;-62
2023/02/17 03:34:29;;;;;;;1.50;0.80;;;9.40;99.90;;;;;;5075141;28;20446;-62
2023/02/17 03:36:57;;;;;;;1.63;0.80;;;9.50;99.90;;;;;;5075623;28;21061;-61
2023/02/17 03:39:24;;;;;;;1.38;0.80;;;9.50;99.90;;;;;;5075673;28;20843;-62
2023/02/17 03:41:51;;;;;;;2.13;0.60;;;9.50;99.90;;;;;;5076846;28;20415;-62
2023/02/17 03:44:19;;;;;;;2.90;0.70;;;9.50;99.90;;;;;;5076338;28;20423;-62
2023/02/17 03:46:46;;;;;;;1.40;0.80;;;9.50;99.90;;;;;;5075432;28;20431;-63
2023/02/17 03:49:14;;;;;;;1.30;0.70;;;9.50;99.90;;;;;;5075067;28;20831;-62
2023/02/17 03:51:41;;;;;;;1.30;0.70;;;9.40;99.90;;;;;;5074795;28;20422;-62
2023/02/17 03:54:09;;;;;;;1.20;0.80;;;9.40;99.90;;;;;;5075693;28;20858;-63
2023/02/17 03:56:36;;;;;;;1.92;0.70;;;9.40;99.90;;;;;;5075736;28;20416;-62
2023/02/17 03:59:04;;;;;;;1.90;0.80;;;9.40;99.90;;;;;;5075347;28;20431;-63
2023/02/17 04:01:31;;;;;;;1.60;0.70;;;9.30;99.90;;;;;;5074855;28;20416;-63
2023/02/17 04:03:58;;;;;;;2.00;0.80;;;9.30;99.90;;;;;;5075651;28;20424;-62
2023/02/17 04:06:25;;;;;;;1.70;0.80;;;9.30;99.90;;;;;;5075862;28;20427;-62
2023/02/17 04:08:52;;;;;;;1.10;0.70;;;9.20;99.90;;;;;;5076293;28;20442;-63
2023/02/17 04:11:21;;;;;;;1.10;0.70;;;9.20;99.90;;;;;;5074929;28;20427;-62
2023/02/17 04:13:48;;;;;;;1.65;0.80;;;9.20;99.90;;;;;;5075735;28;20719;-63
2023/02/17 04:16:15;;;;;;;1.58;0.80;;;9.30;99.90;;;;;;5075667;28;20430;-62
2023/02/17 04:18:42;;;;;;;1.40;0.80;;;9.30;99.90;;;;;;5075566;28;20420;-63
2023/02/17 04:21:09;;;;;;;1.23;0.70;;;9.30;99.90;;;;;;5075831;28;20419;-62
2023/02/17 04:23:37;;;;;;;2.22;0.70;;;9.40;99.90;;;;;;5075501;28;20514;-63
2023/02/17 04:26:06;;;;;;;2.10;0.90;;;9.40;99.90;;;;;;5075586;28;20424;-63
2023/02/17 04:28:34;;;;;;;2.00;0.80;;;9.50;99.90;;;;;;5074923;28;20746;-62
2023/02/17 04:31:01;;;;;;;1.20;0.70;;;9.50;99.90;;;;;;5075760;28;20791;-63
2023/02/17 04:33:28;;;;;;;1.87;0.70;;;9.50;99.90;;;;;;5074762;28;20412;-62
2023/02/17 04:35:58;;;;;;;1.00;0.60;;;9.50;99.90;;;;;;5074928;28;20435;-62
2023/02/17 04:38:27;;;;;;;1.55;0.70;;;9.50;99.90;;;;;;5074622;28;20481;-62
2023/02/17 04:40:55;;;;;;;1.60;0.70;;;9.50;99.90;;;;;;5075758;28;20427;-62
2023/02/17 04:43:22;;;;;;;1.60;0.70;;;9.50;99.90;;;;;;5074670;28;20419;-62
2023/02/17 04:45:51;;;;;;;1.58;0.70;;;9.40;99.90;;;;;;5073309;28;20427;-63
2023/02/17 04:48:18;;;;;;;1.20;0.70;;;9.40;99.90;;;;;;5073707;28;20419;-63
2023/02/17 04:50:45;;;;;;;2.00;0.80;;;9.40;99.90;;;;;;5075566;28;20735;-62
2023/02/17 04:53:13;;;;;;;1.20;0.70;;;9.40;99.90;;;;;;5075298;28;20419;-63
2023/02/17 04:55:41;;;;;;;2.30;0.80;;;9.40;99.90;;;;;;5074594;28;20432;-63
2023/02/17 04:58:09;;;;;;;1.60;0.80;;;9.40;99.90;;;;;;5073715;28;20411;-61
2023/02/17 05:00:36;;;;;;;1.63;0.80;;;9.40;99.90;;;;;;5075375;28;20426;-62
2023/02/17 05:03:05;;;;;;;1.00;0.63;;;9.40;99.90;;;;;;5074889;28;20473;-63
2023/02/17 05:05:33;;;;;;;1.40;0.70;;;9.50;99.90;;;;;;5072445;28;20717;-64
2023/02/17 05:08:00;;;;;;;1.70;0.70;;;9.50;99.90;;;;;;5074219;28;20431;-64
2023/02/17 05:10:27;;;;;;;1.42;0.77;;;9.50;99.90;;;;;;5073066;28;20757;-63
2023/02/17 05:12:54;;;;;;;1.13;0.70;;;9.60;99.90;;;;;;5074407;28;20447;-62
2023/02/17 05:15:22;;;;;;;1.00;0.77;;;9.60;99.90;;;;;;5074570;28;20434;-63
2023/02/17 05:17:49;;;;;;;0.90;0.60;;;9.60;99.90;;;;;;5073005;28;20423;-62
2023/02/17 05:20:17;;;;;;;1.00;0.70;;;9.70;99.90;;;;;;5074186;28;20431;-62
2023/02/17 05:22:44;;;;;;;1.50;0.70;;;9.70;99.90;;;;;;5074443;28;20834;-63
2023/02/17 05:25:12;;;;;;;1.40;0.68;;;9.70;99.90;;;;;;5073793;28;20428;-62
2023/02/17 05:27:39;;;;;;;1.50;0.70;;;9.60;99.90;;;;;;5074913;28;20423;-62
2023/02/17 05:30:08;;;;;;;1.10;0.73;;;9.60;99.90;;;;;;5074565;28;20528;-62
2023/02/17 05:32:35;;;;;;;1.90;0.77;;;9.70;99.90;;;;;;5074439;28;20438;-63
2023/02/17 05:35:02;;;;;;;1.98;0.77;;;9.70;99.90;;;;;;5074241;28;20454;-63
2023/02/17 05:37:30;;;;;;;1.00;0.60;;;9.70;99.90;;;;;;5073859;28;20478;-62
2023/02/17 05:39:57;;;;;;;1.75;0.70;;;9.70;99.90;;;;;;5074603;28;20438;-63
2023/02/17 05:42:27;;;;;;;2.13;0.80;;;9.70;99.90;;;;;;5075058;28;20716;-67
2023/02/17 05:44:55;;;;;;;1.00;0.70;;;9.70;99.90;;;;;;5074676;28;20431;-62
2023/02/17 05:47:22;;;;;;;1.37;0.70;;;9.80;99.90;;;;;;5074690;28;20473;-62
2023/02/17 05:49:49;;;;;;;1.20;0.80;;;9.80;99.90;;;;;;5074360;28;20432;-63
2023/02/17 05:52:17;;;;;;;2.20;0.80;;;9.80;99.90;;;;;;5072194;28;20415;-62
2023/02/17 05:54:45;;;;;;;1.60;0.68;;;9.90;99.90;;;;;;5073039;28;20463;-63
2023/02/17 05:57:12;;;;;;;1.48;0.70;;;9.90;99.90;;;;;;5071763;28;20420;-63
2023/02/17 05:59:39;;;;;;;1.13;0.70;;;10.00;99.90;;;;;;5072868;28;20504;-61
2023/02/17 06:02:08;;;;;;;2.30;0.80;;;10.00;99.90;;;;;;5070895;28;20476;-63
2023/02/17 06:04:35;;;;;;;1.30;0.70;;;10.10;99.90;;;;;;5072188;28;20419;-63
2023/02/17 06:07:02;;;;;;;2.40;0.80;;;10.10;99.90;;;;;;5073408;28;20827;-61
2023/02/17 06:09:29;;;;;;;1.80;0.80;;;10.10;99.90;;;;;;5073208;28;20427;-60
2023/02/17 06:11:58;;;;;;;1.50;0.80;;;10.10;99.90;;;;;;5075066;28;20431;-60
2023/02/17 06:14:25;;;;;;;1.30;0.70;;;10.20;99.90;;;;;;5075391;28;20434;-62
2023/02/17 06:16:52;;;;;;;1.80;0.80;;;10.20;99.90;;;;;;5076046;28;20420;-61
2023/02/17 06:19:19;;;;;;;3.15;1.75;;;10.20;99.90;;;;;;5076619;28;20513;-64
2023/02/17 06:21:46;;;;;;;2.28;0.90;;;10.20;99.90;;;;;;5075985;28;20446;-62
2023/02/17 06:24:14;;;;;;;1.63;0.80;;;10.30;99.90;;;;;;5076642;28;20428;-61
2023/02/17 06:26:41;;;;;;;1.05;0.70;;;10.30;99.90;;;;;;5075466;28;20466;-61
2023/02/17 06:29:09;;;;;;;1.20;0.70;;;10.20;99.90;;;;;;5075025;28;20978;-63
2023/02/17 06:31:36;;;;;;;1.00;0.70;;;10.20;99.90;;;;;;5074170;28;20427;-62
2023/02/17 06:34:04;;;;;;;1.80;0.90;;;10.20;99.90;;;;;;5073303;28;20431;-62
2023/02/17 06:36:31;;;;;;;1.20;0.70;;;10.20;99.90;;;;;;5074104;28;20430;-63
2023/02/17 06:38:58;;;;;;;1.50;0.70;;;10.30;99.90;;;;;;5076189;28;20430;-63
2023/02/17 06:41:25;;;;;;;1.77;0.70;;;10.30;99.90;;;;;;5076750;28;20481;-63
2023/02/17 06:43:52;;;;;;;2.17;0.80;;;10.40;99.90;;;;;;5077949;28;20412;-62
2023/02/17 06:46:20;;;;;;;1.70;0.80;;;10.40;99.90;;;;;;5075915;28;20484;-63
2023/02/17 06:48:47;;;;;;;2.00;0.60;;;10.30;99.90;;;;;;5076101;28;20426;-63
2023/02/17 06:51:15;;;;;;;1.10;0.80;;;10.30;99.90;;;;;;5076067;28;20897;-62
2023/02/17 06:53:42;;;;;;;1.20;0.70;;;10.20;99.90;;;;;;5075367;28;20419;-62
2023/02/17 06:56:09;;;;;;;1.10;0.70;;;10.30;99.90;;;;;;5056531;28;20422;-62
2023/02/17 06:58:36;;;;;;;1.83;0.70;;;10.30;99.90;;;;;;5074940;28;20419;-63
2023/02/17 07:01:06;;;;;;;1.30;0.70;;;10.30;99.90;;;;;;5074942;28;20422;-62
2023/02/17 07:03:35;;;;;;;2.00;0.70;;;10.30;99.90;;;;;;5074692;28;20472;-62
2023/02/17 07:06:03;;;;;;;1.27;0.90;;;10.30;99.90;;;;;;5072879;28;20723;-62
2023/02/17 07:08:30;;;;;;;1.40;0.80;;;10.30;99.90;;;;;;5074513;28;20478;-64
2023/02/17 07:10:57;;;;;;;1.33;0.70;;;10.30;99.90;;;;;;5072556;28;20431;-61
2023/02/17 07:13:24;;;;;;;2.22;0.70;;;10.30;99.90;;;;;;5073592;28;20428;-62
2023/02/17 07:15:53;;;;;;;1.67;0.95;;;10.40;99.90;;;;;;5072940;28;21008;-62
2023/02/17 07:18:20;;;;;;;1.48;0.70;;;10.40;99.90;;;;;;5073053;28;20435;-60
2023/02/17 07:20:49;;;;;;;1.27;0.70;;;10.40;99.90;;;;;;5049439;28;20477;-60
2023/02/17 07:23:16;;;;;;;1.10;0.70;;;10.40;99.90;;;;;;5072291;28;20504;-61
2023/02/17 07:25:44;;;;;;;1.30;0.70;;;10.40;99.90;;;;;;5072921;28;20423;-63
2023/02/17 07:28:11;;;;;;;1.30;0.70;;;10.50;99.90;;;;;;5072609;28;20426;-65
2023/02/17 07:30:39;;;;;;;1.10;0.63;;;10.50;99.90;;;;;;5072460;28;20450;-64
2023/02/17 07:33:07;;;;;;;2.33;0.70;;;10.60;99.90;;;;;;5062634;28;20421;-60
2023/02/17 07:35:35;;;;;;;1.60;0.70;;;10.70;99.90;;;;;;5071598;28;20798;-60
2023/02/17 07:38:03;;;;;;;1.70;0.63;;;10.70;99.90;;;;;;5070626;28;20420;-60
2023/02/17 07:40:30;;;;;;;1.60;0.60;;;10.70;99.90;;;;;;5071233;28;20415;-59
2023/02/17 07:42:57;;;;;;;1.20;0.70;;;10.60;99.90;;;;;;5063673;28;20425;-59
2023/02/17 07:45:24;;;;;;;1.50;0.70;;;10.60;99.90;;;;;;5062519;28;20522;-60
2023/02/17 07:47:52;;;;;;;1.40;0.60;;;10.70;99.90;;;;;;5073653;28;20427;-59
2023/02/17 07:50:19;;;;;;;1.50;1.00;;;10.70;99.90;;;;;;5074609;28;20866;-60
2023/02/17 07:52:46;;;;;;;1.90;0.80;;;10.70;99.90;;;;;;5058271;28;20427;-61
2023/02/17 07:55:15;;;;;;;1.20;0.60;;;10.80;99.90;;;;;;5082647;28;20429;-59
2023/02/17 07:57:42;;;;;;;1.10;0.80;;;10.80;99.90;;;;;;5093287;28;20445;-60
2023/02/17 08:00:10;;;;;;;1.42;0.70;;;10.80;99.90;;;;;;5091653;28;20432;-61
2023/02/17 08:02:37;;;;;;;1.00;0.60;;;10.80;99.90;;;;;;5077874;28;20414;-61
2023/02/17 08:05:04;;;;;;;1.90;0.70;;;10.80;99.90;;;;;;5082454;28;20459;-63
2023/02/17 08:07:32;;;;;;;0.97;0.60;;;10.80;99.90;;;;;;5070744;28;20449;-61
2023/02/17 08:15:34;;;;;;;1.27;0.70;;;11.00;99.90;;;;;;5073033;28;20410;-61
2023/02/17 08:18:03;;;;;;;1.80;0.65;;;11.00;99.90;;;;;;5073048;28;20419;-61
2023/02/17 08:20:30;;;;;;;1.33;0.60;;;11.00;99.90;;;;;;5072564;28;20442;-60
2023/02/17 08:22:57;;;;;;;1.10;0.50;;;11.00;99.90;;;;;;5074197;28;20416;-61
2023/02/17 08:25:25;;;;;;;1.37;0.60;;;11.00;99.90;;;;;;5086287;28;20889;-61
2023/02/17 08:27:54;;;;;;;1.15;0.60;;;11.10;99.90;;;;;;5071450;28;20448;-61
2023/02/17 08:30:21;;;;;;;1.00;0.60;;;11.10;99.90;;;;;;5052897;28;20432;-61
2023/02/17 08:32:48;;;;;;;0.80;0.50;;;11.30;99.90;;;;;;5058388;28;20763;-61
2023/02/17 08:35:17;;;;;;;1.05;0.50;;;11.30;99.90;;;;;;5084284;28;20424;-61
2023/02/17 08:37:45;;;;;;;0.90;0.50;;;11.40;99.90;;;;;;5092458;28;20422;-61
2023/02/17 08:40:12;;;;;;;1.30;0.57;;;11.40;99.90;;;;;;5074138;28;20504;-61
2023/02/17 08:42:39;;;;;;;2.22;0.50;;;11.50;99.90;;;;;;5068434;28;20501;-61
2023/02/17 08:45:08;;;;;;;0.77;0.50;;;11.40;99.90;;;;;;5061473;28;20899;-61
2023/02/17 08:47:36;;;;;;;0.80;0.50;;;11.50;99.90;;;;;;5069698;28;21012;-61
2023/02/17 08:50:04;;;;;;;1.50;0.50;;;11.50;99.90;;;;;;5070811;28;20724;-61
2023/02/17 08:52:32;;;;;;;1.10;0.60;;;11.60;99.90;;;;;;5073445;28;20437;-61
2023/02/17 08:54:59;;;;;;;0.90;0.50;;;11.70;99.90;;;;;;5072996;28;20762;-61
2023/02/17 08:57:27;;;;;;;0.80;0.50;;;11.80;99.90;;;;;;5073135;28;20424;-61
2023/02/17 08:59:54;;;;;;;0.70;0.50;;;11.60;99.90;;;;;;5071972;28;20431;-60
2023/02/17 09:02:23;;;;;;;0.98;0.50;;;11.60;99.90;;;;;;5070182;28;20426;-61
2023/02/17 09:04:50;;;;;;;0.80;0.50;;;11.70;99.90;;;;;;5065749;28;20425;-60
2023/02/17 09:07:17;;;;;;;0.90;0.60;;;11.70;99.90;;;;;;5087174;28;20860;-61
2023/02/17 09:09:45;;;;;;;0.68;0.50;;;11.70;99.90;;;;;;5077385;28;20455;-61
2023/02/17 09:12:12;;;;;;;1.30;0.50;;;11.60;99.90;;;;;;5056042;28;20754;-62
2023/02/17 09:14:39;;;;;;;0.80;0.50;;;11.50;99.90;;;;;;5068117;28;20486;-61
2023/02/17 09:17:06;;;;;;;1.00;0.60;;;11.50;99.90;;;;;;5092543;28;20405;-61
2023/02/17 09:19:37;;;;;;;1.00;0.40;;;11.50;99.90;;;;;;5092084;28;20730;-62
2023/02/17 09:22:05;;;;;;;0.77;0.50;;;11.40;99.90;;;;;;5075137;28;20494;-62
2023/02/17 09:24:37;;;;;;;0.85;0.50;;;11.40;99.90;;;;;;5092756;28;20417;-61
2023/02/17 09:27:05;;;;;;;1.23;0.50;;;11.40;99.90;;;;;;5085217;28;20419;-61
2023/02/17 09:29:34;;;;;;;0.90;0.50;;;11.40;99.90;;;;;;5067531;28;20432;-62
2023/02/17 09:32:02;;;;;;;0.90;0.50;;;11.50;99.90;;;;;;5082510;28;20493;-62
2023/02/17 09:34:30;;;;;;;0.80;0.50;;;11.60;99.90;;;;;;5070420;28;20459;-62
2023/02/17 09:37:02;;;;;;;1.00;0.57;;;11.70;99.90;;;;;;5077870;28;20414;-62
2023/02/17 09:39:34;;;;;;;1.30;0.50;;;11.80;99.90;;;;;;5076196;28;20461;-60
2023/02/17 09:42:11;;;;;;;0.80;0.68;;;11.70;99.90;;;;;;5072441;28;20723;-63
2023/02/17 09:44:43;;;;;;;0.90;0.50;;;11.80;99.90;;;;;;5055602;28;20434;-62
2023/02/17 09:47:14;;;;;;;0.80;0.50;;;11.80;99.90;;;;;;5072791;28;20419;-62
2023/02/17 09:49:50;;;;;;;1.67;0.50;;;12.00;99.90;;;;;;5087086;28;20507;-62
2023/02/17 09:52:32;;;;;;;0.60;0.40;;;12.10;99.90;;;;;;5071903;28;20929;-63
2023/02/17 09:55:08;;;;;;;1.20;0.50;;;12.00;99.90;;;;;;5068217;28;20429;-62
2023/02/17 09:57:48;;;;;;;0.80;0.50;;;12.00;99.90;;;;;;5091185;28;20421;-62
2023/02/17 10:00:28;;;;;;;0.75;0.50;;;12.10;99.90;;;;;;5089138;28;20425;-60
2023/02/17 10:03:07;;;;;;;1.10;0.40;;;12.00;99.90;;;;;;5087306;28;20619;-60
2023/02/17 10:05:46;;;;;;;1.50;0.50;;;12.30;99.90;;;;;;5090210;28;20436;-60
2023/02/17 10:08:24;;;;;;;0.73;0.50;;;12.60;99.90;;;;;;5065879;28;20485;-60
2023/02/17 10:10:59;;;;;;;0.93;0.50;;;12.80;99.90;;;;;;5070301;28;20456;-60
2023/02/17 10:13:41;;;;;;;0.80;0.50;;;12.90;99.90;;;;;;5069867;28;20463;-60
2023/02/17 10:16:25;;;;;;;1.73;0.50;;;13.00;99.90;;;;;;5070821;28;20773;-60
2023/02/17 10:19:00;;;;;;;0.75;0.50;;;13.00;99.90;;;;;;5069733;28;20415;-60
2023/02/17 10:21:32;;;;;;;0.88;0.40;;;12.70;99.90;;;;;;5068673;28;20423;-61
2023/02/17 10:24:01;;;;;;;1.00;0.50;;;12.70;99.90;;;;;;5070415;28;20431;-61
2023/02/17 10:26:48;;;;;;;0.80;0.50;;;12.70;99.90;;;;;;5074640;28;20422;-61
2023/02/17 10:29:30;;;;;;;1.10;0.60;;;12.80;99.90;;;;;;5092192;28;20448;-61
2023/02/17 10:32:14;;;;;;;0.95;0.60;;;12.90;99.90;;;;;;5090651;28;20520;-61
2023/02/17 10:34:49;;;;;;;1.30;0.50;;;13.00;99.90;;;;;;5087249;28;20733;-62
2023/02/17 10:37:29;;;;;;;1.50;0.50;;;13.20;99.90;;;;;;5091025;28;20504;-61
2023/02/17 10:40:00;;;;;;;0.80;0.50;;;13.20;99.90;;;;;;5075816;28;20427;-61
2023/02/17 10:42:29;;;;;;;1.10;0.43;;;13.50;99.90;;;;;;5071501;28;20458;-60
2023/02/17 10:45:01;;;;;;;0.70;0.40;;;13.70;99.90;;;;;;5072237;28;20431;-61
2023/02/17 10:47:33;;;;;;;1.00;0.40;;;14.00;99.90;;;;;;5072353;28;20430;-60
2023/02/17 10:50:09;;;;;;;0.70;0.40;;;13.90;99.90;;;;;;5070947;28;20609;-60
2023/02/17 10:52:47;;;;;;;1.00;0.30;;;13.90;99.90;;;;;;5071558;28;20517;-60
2023/02/17 10:55:35;;;;;;;0.70;0.40;;;13.90;99.90;;;;;;5070168;28;20847;-60
2023/02/17 10:58:09;;;;;;;1.20;0.40;;;13.80;99.90;;;;;;5073583;28;20427;-60
2023/02/17 11:00:37;;;;;;;0.65;0.40;;;13.80;99.90;;;;;;5060241;28;20431;-60
2023/02/17 11:03:04;;;;;;;0.50;0.30;;;13.80;99.90;;;;;;5073142;28;20419;-60
2023/02/17 11:05:34;;;;;;;0.70;0.40;;;13.80;99.90;;;;;;5073526;28;20715;-60
2023/02/17 11:08:04;;;;;;;0.80;0.30;;;13.90;99.90;;;;;;5090828;28;20414;-61
2023/02/17 11:10:35;;;;;;;0.52;0.30;;;14.00;99.90;;;;;;5075892;28;20431;-61
2023/02/17 11:13:05;;;;;;;0.60;0.30;;;14.00;99.90;;;;;;5074003;28;20445;-61
2023/02/17 11:15:36;;;;;;;0.93;0.40;;;14.00;99.90;;;;;;5071719;28;20830;-61
2023/02/17 11:18:10;;;;;;;0.70;0.40;;;14.20;99.90;;;;;;5073416;28;20843;-61
2023/02/17 11:20:38;;;;;;;0.70;0.30;;;14.40;99.90;;;;;;5073232;28;20431;-61
2023/02/17 11:23:20;;;;;;;1.00;0.40;;;14.50;99.90;;;;;;5071600;28;20422;-61
2023/02/17 11:26:01;;;;;;;0.60;0.38;;;14.60;99.90;;;;;;5072796;28;20427;-63
2023/02/17 11:28:29;;;;;;;1.27;0.40;;;14.80;99.90;;;;;;5054023;28;20426;-63
2023/02/17 11:31:01;;;;;;;1.00;0.40;;;14.70;99.90;;;;;;5071657;28;20427;-63
2023/02/17 11:33:33;;;;;;;0.70;0.40;;;14.70;99.90;;;;;;5072232;28;20427;-63
2023/02/17 11:36:02;;;;;;;1.80;0.30;;;14.60;99.90;;;;;;5071972;28;20662;-64
2023/02/17 11:38:33;;;;;;;0.70;0.30;;;14.50;99.90;;;;;;5071396;28;20815;-63
2023/02/17 11:41:03;;;;;;;1.40;1.10;;;14.30;99.90;;;;;;5068137;28;20860;-62
2023/02/17 11:43:31;;;;;;;1.00;0.50;;;14.20;99.90;;;;;;5073343;28;20727;-62
2023/02/17 11:46:18;;;;;;;2.40;0.90;;;14.20;99.90;;;;;;5073125;28;20439;-63
2023/02/17 11:49:24;;;;;;;1.27;0.32;;;14.20;99.90;;;;;;5073160;28;20415;-62
2023/02/17 11:52:00;;;;;;;1.52;0.30;;;14.30;99.90;;;;;;5023937;28;20815;-63
2023/02/17 11:54:36;;;;;;;0.40;0.20;;;14.30;99.90;;;;;;5053319;28;20515;-62
2023/02/17 11:57:19;;;;;;;0.40;0.20;;;14.20;99.90;;;;;;5057923;28;20519;-62
2023/02/17 12:00:04;;;;;;;1.50;0.30;;;14.10;99.90;;;;;;5071217;28;20729;-63
2023/02/17 12:02:52;;;;;;;0.90;0.30;;;14.00;99.90;;;;;;5071214;28;20857;-62
2023/02/17 12:05:30;;;;;;;0.90;0.50;;;14.10;99.90;;;;;;5073582;28;20429;-62
2023/02/17 12:08:06;;;;;;;0.70;0.30;;;14.10;99.90;;;;;;5071805;28;20735;-62
2023/02/17 12:10:48;;;;;;;1.10;0.30;;;14.00;99.90;;;;;;5080541;28;21082;-61
2023/02/17 12:13:35;;;;;;;0.60;0.30;;;13.90;99.90;;;;;;5064034;28;21154;-62
2023/02/17 12:16:21;;;;;;;0.80;0.60;;;13.90;99.90;;;;;;5072214;28;20426;-62
2023/02/17 12:19:01;;;;;;;0.70;0.30;;;13.90;99.90;;;;;;5072231;28;20486;-62
2023/02/17 12:21:44;;;;;;;1.50;0.40;;;13.80;99.90;;;;;;5072003;28;20418;-62
2023/02/17 12:24:25;;;;;;;0.75;0.40;;;13.80;99.90;;;;;;5078212;28;20480;-62
2023/02/17 12:27:03;;;;;;;0.80;0.37;;;13.90;99.90;;;;;;5091396;28;20418;-62
2023/02/17 12:29:45;;;;;;;0.70;0.35;;;13.80;99.90;;;;;;5090507;28;20433;-62
2023/02/17 12:32:27;;;;;;;0.90;0.40;;;13.80;99.90;;;;;;5057636;28;20572;-63
2023/02/17 12:34:59;;;;;;;0.80;0.55;;;13.70;99.90;;;;;;5072304;28;20423;-63
2023/02/17 12:37:30;;;;;;;0.60;0.30;;;13.80;99.90;;;;;;5072715;28;20650;-63
2023/02/17 12:40:02;;;;;;;0.85;0.30;;;13.70;99.90;;;;;;5073225;28;20727;-62
2023/02/17 12:42:34;;;;;;;0.90;0.40;;;13.80;99.90;;;;;;5073116;28;20427;-62
2023/02/17 12:45:08;;;;;;;0.93;0.30;;;13.90;99.90;;;;;;5072688;28;20898;-63
2023/02/17 12:47:44;;;;;;;0.80;0.40;;;14.00;99.90;;;;;;5071700;28;20549;-62
2023/02/17 12:50:19;;;;;;;0.50;0.30;;;14.20;99.90;;;;;;5072745;28;20428;-62
2023/02/17 12:52:52;;;;;;;0.55;0.30;;;14.30;99.90;;;;;;5071152;28;20439;-63
2023/02/17 12:55:22;;;;;;;2.60;0.40;;;14.30;99.90;;;;;;5070435;28;20439;-62
2023/02/17 12:57:55;;;;;;;0.50;0.30;;;14.30;99.90;;;;;;5071288;28;20716;-62
2023/02/17 13:00:28;;;;;;;1.48;0.40;;;14.40;99.90;;;;;;5072861;28;20435;-63
2023/02/17 13:02:58;;;;;;;1.27;0.50;;;14.50;99.90;;;;;;5071133;28;20449;-63
2023/02/17 13:05:30;;;;;;;1.60;0.60;;;14.50;99.90;;;;;;5071606;28;20435;-61
2023/02/17 13:08:00;;;;;;;0.60;0.40;;;14.50;99.90;;;;;;5071088;28;20433;-61
2023/02/17 13:10:32;;;;;;;0.70;0.40;;;14.50;99.90;;;;;;5070786;28;20863;-61
2023/02/17 13:13:06;;;;;;;1.65;0.30;;;14.50;99.90;;;;;;5069876;28;20435;-63